Terminal Aerodrome Forecast
Issued by NWS Charleston, WV

Current Version | Previous Version | Graphics & Text | Print | Product List | Glossary On
Versions: 1 2 3 4 5 6 7 8 9 10 11 12 13 14 15 16 17 18 19 20 21 22 23
466
FTUS41 KRLX 282206 AAA
TAFHTS
TAF AMD
KHTS 282206Z 2822/2918 19005KT P6SM BKN200
     FM290100 00000KT P6SM BKN200
     FM290800 00000KT P6SM BKN110
     FM291500 22005KT P6SM SCT035=

USA.gov is the U.S. government's official web portal to all federal, state and local government web resources and services.